sensor_id;sensor_type;location;lat;lon;timestamp;P1;durP1;ratioP1;P2;durP2;ratioP2
60885;SDS011;46736;41.654;-8.438;2024-02-23T00:00:38;0.73;;;0.73;;
60885;SDS011;46736;41.654;-8.438;2024-02-23T00:02:39;0.82;;;0.82;;
60885;SDS011;46736;41.654;-8.438;2024-02-23T00:04:42;0.80;;;0.80;;
60885;SDS011;46736;41.654;-8.438;2024-02-23T00:06:43;0.90;;;0.90;;
60885;SDS011;46736;41.654;-8.438;2024-02-23T00:08:43;1.00;;;1.00;;
60885;SDS011;46736;41.654;-8.438;2024-02-23T00:10:44;1.05;;;1.05;;
60885;SDS011;46736;41.654;-8.438;2024-02-23T00:12:44;1.00;;;1.00;;
60885;SDS011;46736;41.654;-8.438;2024-02-23T00:14:45;1.00;;;1.00;;
60885;SDS011;46736;41.654;-8.438;2024-02-23T00:16:45;1.10;;;1.10;;
60885;SDS011;46736;41.654;-8.438;2024-02-23T00:18:46;1.00;;;1.00;;
60885;SDS011;46736;41.654;-8.438;2024-02-23T00:20:47;0.80;;;0.80;;
60885;SDS011;46736;41.654;-8.438;2024-02-23T00:22:47;1.00;;;1.00;;
60885;SDS011;46736;41.654;-8.438;2024-02-23T00:24:47;1.00;;;1.00;;
60885;SDS011;46736;41.654;-8.438;2024-02-23T00:26:48;1.10;;;1.10;;
60885;SDS011;46736;41.654;-8.438;2024-02-23T00:28:48;1.00;;;1.00;;
60885;SDS011;46736;41.654;-8.438;2024-02-23T00:30:49;0.93;;;0.93;;
60885;SDS011;46736;41.654;-8.438;2024-02-23T00:32:49;1.00;;;1.00;;
60885;SDS011;46736;41.654;-8.438;2024-02-23T00:34:50;1.15;;;1.15;;
60885;SDS011;46736;41.654;-8.438;2024-02-23T00:36:50;1.02;;;1.02;;
60885;SDS011;46736;41.654;-8.438;2024-02-23T00:38:51;0.98;;;0.98;;
60885;SDS011;46736;41.654;-8.438;2024-02-23T00:40:51;0.95;;;0.95;;
60885;SDS011;46736;41.654;-8.438;2024-02-23T00:42:52;1.00;;;1.00;;
60885;SDS011;46736;41.654;-8.438;2024-02-23T00:44:53;0.95;;;0.95;;
60885;SDS011;46736;41.654;-8.438;2024-02-23T00:46:54;1.00;;;1.00;;
60885;SDS011;46736;41.654;-8.438;2024-02-23T00:48:54;1.10;;;1.10;;
60885;SDS011;46736;41.654;-8.438;2024-02-23T00:50:55;1.00;;;1.00;;
60885;SDS011;46736;41.654;-8.438;2024-02-23T00:52:56;0.98;;;0.98;;
60885;SDS011;46736;41.654;-8.438;2024-02-23T00:54:56;0.95;;;0.95;;
60885;SDS011;46736;41.654;-8.438;2024-02-23T00:56:57;1.20;;;1.20;;
60885;SDS011;46736;41.654;-8.438;2024-02-23T00:58:57;1.20;;;1.20;;
60885;SDS011;46736;41.654;-8.438;2024-02-23T01:00:58;1.00;;;1.00;;
60885;SDS011;46736;41.654;-8.438;2024-02-23T01:02:59;1.00;;;1.00;;
60885;SDS011;46736;41.654;-8.438;2024-02-23T01:05:00;1.10;;;1.10;;
60885;SDS011;46736;41.654;-8.438;2024-02-23T01:07:01;1.10;;;1.10;;
60885;SDS011;46736;41.654;-8.438;2024-02-23T01:09:01;0.90;;;0.90;;
60885;SDS011;46736;41.654;-8.438;2024-02-23T01:11:04;1.00;;;1.00;;
60885;SDS011;46736;41.654;-8.438;2024-02-23T01:13:05;1.00;;;1.00;;
60885;SDS011;46736;41.654;-8.438;2024-02-23T01:15:05;1.10;;;1.10;;
60885;SDS011;46736;41.654;-8.438;2024-02-23T01:17:06;0.90;;;0.90;;
60885;SDS011;46736;41.654;-8.438;2024-02-23T01:19:06;0.85;;;0.85;;
60885;SDS011;46736;41.654;-8.438;2024-02-23T01:21:07;1.08;;;1.08;;
60885;SDS011;46736;41.654;-8.438;2024-02-23T01:23:08;0.95;;;0.95;;
60885;SDS011;46736;41.654;-8.438;2024-02-23T01:25:09;1.00;;;1.00;;
60885;SDS011;46736;41.654;-8.438;2024-02-23T01:27:09;1.10;;;1.10;;
60885;SDS011;46736;41.654;-8.438;2024-02-23T01:29:10;1.00;;;1.00;;
60885;SDS011;46736;41.654;-8.438;2024-02-23T01:31:11;1.00;;;1.00;;
60885;SDS011;46736;41.654;-8.438;2024-02-23T01:33:11;1.25;;;1.25;;
60885;SDS011;46736;41.654;-8.438;2024-02-23T01:35:12;1.00;;;1.00;;
60885;SDS011;46736;41.654;-8.438;2024-02-23T01:37:12;1.10;;;1.10;;
60885;SDS011;46736;41.654;-8.438;2024-02-23T01:39:13;1.00;;;1.00;;
60885;SDS011;46736;41.654;-8.438;2024-02-23T01:41:13;1.20;;;1.20;;
60885;SDS011;46736;41.654;-8.438;2024-02-23T01:43:14;0.93;;;0.93;;
60885;SDS011;46736;41.654;-8.438;2024-02-23T01:45:14;1.00;;;1.00;;
60885;SDS011;46736;41.654;-8.438;2024-02-23T01:47:15;1.00;;;1.00;;
60885;SDS011;46736;41.654;-8.438;2024-02-23T01:49:16;1.30;;;1.30;;
60885;SDS011;46736;41.654;-8.438;2024-02-23T01:51:16;1.20;;;1.20;;
60885;SDS011;46736;41.654;-8.438;2024-02-23T01:53:17;1.20;;;1.20;;
60885;SDS011;46736;41.654;-8.438;2024-02-23T01:55:20;1.00;;;1.00;;
60885;SDS011;46736;41.654;-8.438;2024-02-23T01:57:20;0.90;;;0.90;;
60885;SDS011;46736;41.654;-8.438;2024-02-23T01:59:22;1.10;;;1.10;;
60885;SDS011;46736;41.654;-8.438;2024-02-23T02:01:23;1.00;;;1.00;;
60885;SDS011;46736;41.654;-8.438;2024-02-23T02:03:23;0.73;;;0.73;;
60885;SDS011;46736;41.654;-8.438;2024-02-23T02:05:24;0.95;;;0.95;;
60885;SDS011;46736;41.654;-8.438;2024-02-23T02:07:24;1.10;;;1.10;;
60885;SDS011;46736;41.654;-8.438;2024-02-23T02:09:26;1.00;;;1.00;;
60885;SDS011;46736;41.654;-8.438;2024-02-23T02:11:26;1.10;;;1.10;;
60885;SDS011;46736;41.654;-8.438;2024-02-23T02:13:28;1.10;;;1.10;;
60885;SDS011;46736;41.654;-8.438;2024-02-23T02:15:28;1.20;;;1.20;;
60885;SDS011;46736;41.654;-8.438;2024-02-23T02:17:29;1.10;;;1.10;;
60885;SDS011;46736;41.654;-8.438;2024-02-23T02:19:29;0.90;;;0.90;;
60885;SDS011;46736;41.654;-8.438;2024-02-23T02:21:31;1.00;;;1.00;;
60885;SDS011;46736;41.654;-8.438;2024-02-23T02:23:31;1.10;;;1.10;;
60885;SDS011;46736;41.654;-8.438;2024-02-23T02:25:32;0.95;;;0.95;;
60885;SDS011;46736;41.654;-8.438;2024-02-23T02:27:32;1.08;;;1.08;;
60885;SDS011;46736;41.654;-8.438;2024-02-23T02:29:33;0.80;;;0.80;;
60885;SDS011;46736;41.654;-8.438;2024-02-23T02:31:33;1.00;;;1.00;;
60885;SDS011;46736;41.654;-8.438;2024-02-23T02:33:37;0.90;;;0.90;;
60885;SDS011;46736;41.654;-8.438;2024-02-23T02:35:37;0.90;;;0.90;;
60885;SDS011;46736;41.654;-8.438;2024-02-23T02:37:38;0.90;;;0.90;;
60885;SDS011;46736;41.654;-8.438;2024-02-23T02:39:39;0.80;;;0.80;;
60885;SDS011;46736;41.654;-8.438;2024-02-23T02:41:40;0.80;;;0.80;;
60885;SDS011;46736;41.654;-8.438;2024-02-23T02:43:41;0.98;;;0.98;;
60885;SDS011;46736;41.654;-8.438;2024-02-23T02:45:41;1.00;;;1.00;;
60885;SDS011;46736;41.654;-8.438;2024-02-23T02:47:42;0.82;;;0.82;;
60885;SDS011;46736;41.654;-8.438;2024-02-23T02:49:42;0.85;;;0.85;;
60885;SDS011;46736;41.654;-8.438;2024-02-23T02:51:43;0.80;;;0.80;;
60885;SDS011;46736;41.654;-8.438;2024-02-23T02:53:45;1.00;;;1.00;;
60885;SDS011;46736;41.654;-8.438;2024-02-23T02:55:45;0.90;;;0.90;;
60885;SDS011;46736;41.654;-8.438;2024-02-23T02:57:46;1.00;;;1.00;;
60885;SDS011;46736;41.654;-8.438;2024-02-23T02:59:47;0.90;;;0.90;;
60885;SDS011;46736;41.654;-8.438;2024-02-23T03:01:50;1.08;;;1.08;;
60885;SDS011;46736;41.654;-8.438;2024-02-23T03:03:50;1.10;;;1.10;;
60885;SDS011;46736;41.654;-8.438;2024-02-23T03:05:51;0.88;;;0.88;;
60885;SDS011;46736;41.654;-8.438;2024-02-23T03:07:51;0.88;;;0.88;;
60885;SDS011;46736;41.654;-8.438;2024-02-23T03:09:52;0.90;;;0.90;;
60885;SDS011;46736;41.654;-8.438;2024-02-23T03:11:52;1.10;;;1.10;;
60885;SDS011;46736;41.654;-8.438;2024-02-23T03:13:53;1.00;;;1.00;;
60885;SDS011;46736;41.654;-8.438;2024-02-23T03:15:53;1.00;;;1.00;;
60885;SDS011;46736;41.654;-8.438;2024-02-23T03:17:55;1.10;;;1.10;;
60885;SDS011;46736;41.654;-8.438;2024-02-23T03:19:55;1.00;;;1.00;;
60885;SDS011;46736;41.654;-8.438;2024-02-23T03:21:58;1.10;;;1.10;;
60885;SDS011;46736;41.654;-8.438;2024-02-23T03:23:58;0.90;;;0.90;;
60885;SDS011;46736;41.654;-8.438;2024-02-23T03:25:59;1.10;;;1.10;;
60885;SDS011;46736;41.654;-8.438;2024-02-23T03:27:59;1.10;;;1.10;;
60885;SDS011;46736;41.654;-8.438;2024-02-23T03:30:00;0.90;;;0.90;;
60885;SDS011;46736;41.654;-8.438;2024-02-23T03:32:01;1.00;;;1.00;;
60885;SDS011;46736;41.654;-8.438;2024-02-23T03:34:02;1.02;;;1.02;;
60885;SDS011;46736;41.654;-8.438;2024-02-23T03:36:03;0.90;;;0.90;;
60885;SDS011;46736;41.654;-8.438;2024-02-23T03:38:03;1.00;;;1.00;;
60885;SDS011;46736;41.654;-8.438;2024-02-23T03:40:05;0.82;;;0.82;;
60885;SDS011;46736;41.654;-8.438;2024-02-23T03:42:06;1.10;;;1.10;;
60885;SDS011;46736;41.654;-8.438;2024-02-23T03:44:07;0.93;;;0.93;;
60885;SDS011;46736;41.654;-8.438;2024-02-23T03:46:08;0.90;;;0.90;;
60885;SDS011;46736;41.654;-8.438;2024-02-23T03:48:08;1.00;;;1.00;;
60885;SDS011;46736;41.654;-8.438;2024-02-23T03:50:09;0.88;;;0.88;;
60885;SDS011;46736;41.654;-8.438;2024-02-23T03:52:09;1.10;;;1.10;;
60885;SDS011;46736;41.654;-8.438;2024-02-23T03:54:10;1.00;;;1.00;;
60885;SDS011;46736;41.654;-8.438;2024-02-23T03:56:10;1.20;;;1.20;;
60885;SDS011;46736;41.654;-8.438;2024-02-23T03:58:11;1.30;;;1.30;;
60885;SDS011;46736;41.654;-8.438;2024-02-23T04:00:12;1.35;;;1.35;;
60885;SDS011;46736;41.654;-8.438;2024-02-23T04:02:15;1.10;;;1.10;;
60885;SDS011;46736;41.654;-8.438;2024-02-23T04:04:16;1.30;;;1.30;;
60885;SDS011;46736;41.654;-8.438;2024-02-23T04:06:16;1.20;;;1.20;;
60885;SDS011;46736;41.654;-8.438;2024-02-23T04:08:17;1.00;;;1.00;;
60885;SDS011;46736;41.654;-8.438;2024-02-23T04:10:18;1.10;;;1.10;;
60885;SDS011;46736;41.654;-8.438;2024-02-23T04:12:19;1.10;;;1.10;;
60885;SDS011;46736;41.654;-8.438;2024-02-23T04:14:20;0.80;;;0.80;;
60885;SDS011;46736;41.654;-8.438;2024-02-23T04:16:22;1.10;;;1.10;;
60885;SDS011;46736;41.654;-8.438;2024-02-23T04:18:23;0.80;;;0.80;;
60885;SDS011;46736;41.654;-8.438;2024-02-23T04:20:24;1.00;;;1.00;;
60885;SDS011;46736;41.654;-8.438;2024-02-23T04:22:25;1.00;;;1.00;;
60885;SDS011;46736;41.654;-8.438;2024-02-23T04:24:26;0.90;;;0.90;;
60885;SDS011;46736;41.654;-8.438;2024-02-23T04:26:26;0.90;;;0.90;;
60885;SDS011;46736;41.654;-8.438;2024-02-23T04:28:27;1.00;;;1.00;;
60885;SDS011;46736;41.654;-8.438;2024-02-23T04:30:31;1.10;;;1.10;;
60885;SDS011;46736;41.654;-8.438;2024-02-23T04:32:31;1.20;;;1.20;;
60885;SDS011;46736;41.654;-8.438;2024-02-23T04:34:32;1.10;;;1.10;;
60885;SDS011;46736;41.654;-8.438;2024-02-23T04:36:32;0.93;;;0.93;;
60885;SDS011;46736;41.654;-8.438;2024-02-23T04:38:33;1.10;;;1.10;;
60885;SDS011;46736;41.654;-8.438;2024-02-23T04:40:34;1.10;;;1.10;;
60885;SDS011;46736;41.654;-8.438;2024-02-23T04:42:35;1.27;;;1.27;;
60885;SDS011;46736;41.654;-8.438;2024-02-23T04:44:36;1.10;;;1.10;;
60885;SDS011;46736;41.654;-8.438;2024-02-23T04:46:36;1.05;;;1.05;;
60885;SDS011;46736;41.654;-8.438;2024-02-23T04:48:37;1.13;;;1.13;;
60885;SDS011;46736;41.654;-8.438;2024-02-23T04:50:37;1.10;;;1.10;;
60885;SDS011;46736;41.654;-8.438;2024-02-23T04:52:38;0.90;;;0.90;;
60885;SDS011;46736;41.654;-8.438;2024-02-23T04:54:38;1.00;;;1.00;;
60885;SDS011;46736;41.654;-8.438;2024-02-23T04:56:39;1.10;;;1.10;;
60885;SDS011;46736;41.654;-8.438;2024-02-23T04:58:39;1.10;;;1.10;;
60885;SDS011;46736;41.654;-8.438;2024-02-23T05:00:42;1.10;;;1.10;;
60885;SDS011;46736;41.654;-8.438;2024-02-23T05:02:43;1.10;;;1.10;;
60885;SDS011;46736;41.654;-8.438;2024-02-23T05:04:43;1.10;;;1.10;;
60885;SDS011;46736;41.654;-8.438;2024-02-23T05:06:44;1.00;;;1.00;;
60885;SDS011;46736;41.654;-8.438;2024-02-23T05:08:45;0.82;;;0.82;;
60885;SDS011;46736;41.654;-8.438;2024-02-23T05:10:46;1.20;;;1.20;;
60885;SDS011;46736;41.654;-8.438;2024-02-23T05:12:46;1.08;;;1.08;;
60885;SDS011;46736;41.654;-8.438;2024-02-23T05:14:47;0.90;;;0.90;;
60885;SDS011;46736;41.654;-8.438;2024-02-23T05:16:47;1.10;;;1.10;;
60885;SDS011;46736;41.654;-8.438;2024-02-23T05:18:48;1.13;;;1.13;;
60885;SDS011;46736;41.654;-8.438;2024-02-23T05:20:49;1.20;;;1.20;;
60885;SDS011;46736;41.654;-8.438;2024-02-23T05:22:49;0.90;;;0.90;;
60885;SDS011;46736;41.654;-8.438;2024-02-23T05:24:49;0.90;;;0.90;;
60885;SDS011;46736;41.654;-8.438;2024-02-23T05:26:50;1.10;;;1.10;;
60885;SDS011;46736;41.654;-8.438;2024-02-23T05:28:50;0.88;;;0.88;;
60885;SDS011;46736;41.654;-8.438;2024-02-23T05:30:51;0.90;;;0.90;;
60885;SDS011;46736;41.654;-8.438;2024-02-23T05:32:52;0.90;;;0.90;;
60885;SDS011;46736;41.654;-8.438;2024-02-23T05:34:52;1.10;;;1.10;;
60885;SDS011;46736;41.654;-8.438;2024-02-23T05:36:54;0.95;;;0.95;;
60885;SDS011;46736;41.654;-8.438;2024-02-23T05:38:54;1.20;;;1.20;;
60885;SDS011;46736;41.654;-8.438;2024-02-23T05:40:55;1.00;;;1.00;;
60885;SDS011;46736;41.654;-8.438;2024-02-23T05:42:56;0.85;;;0.85;;
60885;SDS011;46736;41.654;-8.438;2024-02-23T05:44:56;1.20;;;1.20;;
60885;SDS011;46736;41.654;-8.438;2024-02-23T05:46:57;1.00;;;1.00;;
60885;SDS011;46736;41.654;-8.438;2024-02-23T05:48:58;1.00;;;1.00;;
60885;SDS011;46736;41.654;-8.438;2024-02-23T05:50:59;1.00;;;1.00;;
60885;SDS011;46736;41.654;-8.438;2024-02-23T05:52:59;1.00;;;1.00;;
60885;SDS011;46736;41.654;-8.438;2024-02-23T05:55:00;1.08;;;1.08;;
60885;SDS011;46736;41.654;-8.438;2024-02-23T05:57:00;1.10;;;1.10;;
60885;SDS011;46736;41.654;-8.438;2024-02-23T05:59:01;0.88;;;0.88;;
60885;SDS011;46736;41.654;-8.438;2024-02-23T06:01:05;1.00;;;1.00;;
60885;SDS011;46736;41.654;-8.438;2024-02-23T06:03:07;1.00;;;1.00;;
60885;SDS011;46736;41.654;-8.438;2024-02-23T06:05:07;0.80;;;0.80;;
60885;SDS011;46736;41.654;-8.438;2024-02-23T06:07:08;1.15;;;1.15;;
60885;SDS011;46736;41.654;-8.438;2024-02-23T06:09:09;1.20;;;1.20;;
60885;SDS011;46736;41.654;-8.438;2024-02-23T06:11:10;1.30;;;1.30;;
60885;SDS011;46736;41.654;-8.438;2024-02-23T06:13:10;1.20;;;1.20;;
60885;SDS011;46736;41.654;-8.438;2024-02-23T06:15:11;1.10;;;1.10;;
60885;SDS011;46736;41.654;-8.438;2024-02-23T06:17:11;1.10;;;1.10;;
60885;SDS011;46736;41.654;-8.438;2024-02-23T06:19:12;1.10;;;1.10;;
60885;SDS011;46736;41.654;-8.438;2024-02-23T06:21:13;1.10;;;1.10;;
60885;SDS011;46736;41.654;-8.438;2024-02-23T06:23:14;1.30;;;1.30;;
60885;SDS011;46736;41.654;-8.438;2024-02-23T06:25:14;1.00;;;1.00;;
60885;SDS011;46736;41.654;-8.438;2024-02-23T06:27:15;1.30;;;1.30;;
60885;SDS011;46736;41.654;-8.438;2024-02-23T06:29:16;1.00;;;1.00;;
60885;SDS011;46736;41.654;-8.438;2024-02-23T06:31:16;1.10;;;1.10;;
60885;SDS011;46736;41.654;-8.438;2024-02-23T06:33:17;1.10;;;1.10;;
60885;SDS011;46736;41.654;-8.438;2024-02-23T06:35:17;1.20;;;1.20;;
60885;SDS011;46736;41.654;-8.438;2024-02-23T06:37:18;0.98;;;0.98;;
60885;SDS011;46736;41.654;-8.438;2024-02-23T06:39:19;1.13;;;1.13;;
60885;SDS011;46736;41.654;-8.438;2024-02-23T06:41:20;1.17;;;1.17;;
60885;SDS011;46736;41.654;-8.438;2024-02-23T06:43:20;1.30;;;1.30;;
60885;SDS011;46736;41.654;-8.438;2024-02-23T06:45:21;1.10;;;1.10;;
60885;SDS011;46736;41.654;-8.438;2024-02-23T06:47:25;1.20;;;1.20;;
60885;SDS011;46736;41.654;-8.438;2024-02-23T06:49:26;1.20;;;1.20;;
60885;SDS011;46736;41.654;-8.438;2024-02-23T06:51:26;1.20;;;1.20;;
60885;SDS011;46736;41.654;-8.438;2024-02-23T06:53:28;1.20;;;1.20;;
60885;SDS011;46736;41.654;-8.438;2024-02-23T06:55:29;1.20;;;1.20;;
60885;SDS011;46736;41.654;-8.438;2024-02-23T06:57:29;1.00;;;1.00;;
60885;SDS011;46736;41.654;-8.438;2024-02-23T06:59:31;1.13;;;1.13;;
60885;SDS011;46736;41.654;-8.438;2024-02-23T07:01:32;1.00;;;1.00;;
60885;SDS011;46736;41.654;-8.438;2024-02-23T07:03:35;1.10;;;1.10;;
60885;SDS011;46736;41.654;-8.438;2024-02-23T07:05:35;1.20;;;1.20;;
60885;SDS011;46736;41.654;-8.438;2024-02-23T07:07:37;1.10;;;1.10;;
60885;SDS011;46736;41.654;-8.438;2024-02-23T07:09:37;1.17;;;1.17;;
60885;SDS011;46736;41.654;-8.438;2024-02-23T07:11:38;1.00;;;1.00;;
60885;SDS011;46736;41.654;-8.438;2024-02-23T07:13:39;1.08;;;1.08;;
60885;SDS011;46736;41.654;-8.438;2024-02-23T07:15:42;1.10;;;1.10;;
60885;SDS011;46736;41.654;-8.438;2024-02-23T07:17:43;1.30;;;1.30;;
60885;SDS011;46736;41.654;-8.438;2024-02-23T07:19:44;1.10;;;1.10;;
60885;SDS011;46736;41.654;-8.438;2024-02-23T07:21:45;1.30;;;1.30;;
60885;SDS011;46736;41.654;-8.438;2024-02-23T07:23:46;1.33;;;1.33;;
60885;SDS011;46736;41.654;-8.438;2024-02-23T07:25:47;1.20;;;1.20;;
60885;SDS011;46736;41.654;-8.438;2024-02-23T07:27:48;1.10;;;1.10;;
60885;SDS011;46736;41.654;-8.438;2024-02-23T07:29:50;1.20;;;1.20;;
60885;SDS011;46736;41.654;-8.438;2024-02-23T07:31:50;0.95;;;0.95;;
60885;SDS011;46736;41.654;-8.438;2024-02-23T07:33:54;1.17;;;1.17;;
60885;SDS011;46736;41.654;-8.438;2024-02-23T07:35:54;0.98;;;0.98;;
60885;SDS011;46736;41.654;-8.438;2024-02-23T07:37:58;1.00;;;1.00;;
60885;SDS011;46736;41.654;-8.438;2024-02-23T07:39:58;1.08;;;1.08;;
60885;SDS011;46736;41.654;-8.438;2024-02-23T07:41:59;1.02;;;1.02;;
60885;SDS011;46736;41.654;-8.438;2024-02-23T07:43:59;0.90;;;0.90;;
60885;SDS011;46736;41.654;-8.438;2024-02-23T07:46:00;1.10;;;1.10;;
60885;SDS011;46736;41.654;-8.438;2024-02-23T07:48:02;1.00;;;1.00;;
60885;SDS011;46736;41.654;-8.438;2024-02-23T07:50:03;1.10;;;1.10;;
60885;SDS011;46736;41.654;-8.438;2024-02-23T07:52:03;1.02;;;1.02;;
60885;SDS011;46736;41.654;-8.438;2024-02-23T07:54:04;0.95;;;0.95;;
60885;SDS011;46736;41.654;-8.438;2024-02-23T07:56:07;1.13;;;1.13;;
60885;SDS011;46736;41.654;-8.438;2024-02-23T07:58:08;1.10;;;1.10;;
60885;SDS011;46736;41.654;-8.438;2024-02-23T08:00:08;1.00;;;1.00;;
60885;SDS011;46736;41.654;-8.438;2024-02-23T08:02:14;1.08;;;1.08;;
60885;SDS011;46736;41.654;-8.438;2024-02-23T08:04:15;1.00;;;1.00;;
60885;SDS011;46736;41.654;-8.438;2024-02-23T08:06:16;0.93;;;0.93;;
60885;SDS011;46736;41.654;-8.438;2024-02-23T08:08:16;0.95;;;0.95;;
60885;SDS011;46736;41.654;-8.438;2024-02-23T08:10:17;0.90;;;0.90;;
60885;SDS011;46736;41.654;-8.438;2024-02-23T08:12:17;0.90;;;0.90;;
60885;SDS011;46736;41.654;-8.438;2024-02-23T08:14:18;0.95;;;0.95;;
60885;SDS011;46736;41.654;-8.438;2024-02-23T08:16:19;0.80;;;0.80;;
60885;SDS011;46736;41.654;-8.438;2024-02-23T08:18:19;1.08;;;1.08;;
60885;SDS011;46736;41.654;-8.438;2024-02-23T08:20:20;1.00;;;1.00;;
60885;SDS011;46736;41.654;-8.438;2024-02-23T08:22:21;1.00;;;1.00;;
60885;SDS011;46736;41.654;-8.438;2024-02-23T08:24:23;1.20;;;1.20;;
60885;SDS011;46736;41.654;-8.438;2024-02-23T08:26:24;1.00;;;1.00;;
60885;SDS011;46736;41.654;-8.438;2024-02-23T08:28:24;1.10;;;1.10;;
60885;SDS011;46736;41.654;-8.438;2024-02-23T08:30:25;1.10;;;1.10;;
60885;SDS011;46736;41.654;-8.438;2024-02-23T08:32:25;0.73;;;0.73;;
60885;SDS011;46736;41.654;-8.438;2024-02-23T08:34:26;0.98;;;0.98;;
60885;SDS011;46736;41.654;-8.438;2024-02-23T08:36:27;1.00;;;1.00;;
60885;SDS011;46736;41.654;-8.438;2024-02-23T08:38:29;1.10;;;1.10;;
60885;SDS011;46736;41.654;-8.438;2024-02-23T08:40:30;1.00;;;1.00;;
60885;SDS011;46736;41.654;-8.438;2024-02-23T08:42:32;1.10;;;1.10;;
60885;SDS011;46736;41.654;-8.438;2024-02-23T08:44:33;1.00;;;1.00;;
60885;SDS011;46736;41.654;-8.438;2024-02-23T08:46:34;0.90;;;0.90;;
60885;SDS011;46736;41.654;-8.438;2024-02-23T08:48:35;0.93;;;0.93;;
60885;SDS011;46736;41.654;-8.438;2024-02-23T08:50:36;1.00;;;1.00;;
60885;SDS011;46736;41.654;-8.438;2024-02-23T08:52:38;0.85;;;0.85;;
60885;SDS011;46736;41.654;-8.438;2024-02-23T08:54:39;0.90;;;0.90;;
60885;SDS011;46736;41.654;-8.438;2024-02-23T08:56:41;0.70;;;0.70;;
60885;SDS011;46736;41.654;-8.438;2024-02-23T08:58:43;1.00;;;1.00;;
60885;SDS011;46736;41.654;-8.438;2024-02-23T09:00:43;0.77;;;0.77;;
60885;SDS011;46736;41.654;-8.438;2024-02-23T09:02:44;0.85;;;0.85;;
60885;SDS011;46736;41.654;-8.438;2024-02-23T09:04:45;0.90;;;0.90;;
60885;SDS011;46736;41.654;-8.438;2024-02-23T09:06:45;0.80;;;0.80;;
60885;SDS011;46736;41.654;-8.438;2024-02-23T09:08:46;0.90;;;0.90;;
60885;SDS011;46736;41.654;-8.438;2024-02-23T09:10:47;0.80;;;0.80;;
60885;SDS011;46736;41.654;-8.438;2024-02-23T09:12:47;1.08;;;1.08;;
60885;SDS011;46736;41.654;-8.438;2024-02-23T09:14:48;1.08;;;1.08;;
60885;SDS011;46736;41.654;-8.438;2024-02-23T09:16:48;0.80;;;0.80;;
60885;SDS011;46736;41.654;-8.438;2024-02-23T09:18:51;0.90;;;0.90;;
60885;SDS011;46736;41.654;-8.438;2024-02-23T09:20:57;0.70;;;0.70;;
60885;SDS011;46736;41.654;-8.438;2024-02-23T09:22:57;0.70;;;0.70;;
60885;SDS011;46736;41.654;-8.438;2024-02-23T09:24:59;1.00;;;1.00;;
60885;SDS011;46736;41.654;-8.438;2024-02-23T09:26:59;0.90;;;0.90;;
60885;SDS011;46736;41.654;-8.438;2024-02-23T09:29:00;0.60;;;0.60;;
60885;SDS011;46736;41.654;-8.438;2024-02-23T09:31:09;0.88;;;0.88;;
60885;SDS011;46736;41.654;-8.438;2024-02-23T09:33:10;0.90;;;0.90;;
60885;SDS011;46736;41.654;-8.438;2024-02-23T09:35:12;0.80;;;0.80;;
60885;SDS011;46736;41.654;-8.438;2024-02-23T09:37:13;0.80;;;0.80;;
60885;SDS011;46736;41.654;-8.438;2024-02-23T09:39:15;0.70;;;0.70;;
60885;SDS011;46736;41.654;-8.438;2024-02-23T09:41:20;0.60;;;0.60;;
60885;SDS011;46736;41.654;-8.438;2024-02-23T09:43:21;0.40;;;0.40;;
60885;SDS011;46736;41.654;-8.438;2024-02-23T09:45:24;0.40;;;0.40;;
60885;SDS011;46736;41.654;-8.438;2024-02-23T09:47:28;0.40;;;0.40;;
60885;SDS011;46736;41.654;-8.438;2024-02-23T09:49:29;0.30;;;0.30;;
60885;SDS011;46736;41.654;-8.438;2024-02-23T09:51:29;0.30;;;0.30;;
60885;SDS011;46736;41.654;-8.438;2024-02-23T09:53:30;0.30;;;0.30;;
60885;SDS011;46736;41.654;-8.438;2024-02-23T09:55:31;0.20;;;0.20;;
60885;SDS011;46736;41.654;-8.438;2024-02-23T09:57:31;0.30;;;0.30;;
60885;SDS011;46736;41.654;-8.438;2024-02-23T09:59:33;0.30;;;0.30;;
60885;SDS011;46736;41.654;-8.438;2024-02-23T10:01:37;0.20;;;0.20;;
60885;SDS011;46736;41.654;-8.438;2024-02-23T10:03:38;0.22;;;0.22;;
60885;SDS011;46736;41.654;-8.438;2024-02-23T10:05:39;0.20;;;0.20;;
60885;SDS011;46736;41.654;-8.438;2024-02-23T10:07:40;0.30;;;0.30;;
60885;SDS011;46736;41.654;-8.438;2024-02-23T10:09:41;0.30;;;0.30;;
60885;SDS011;46736;41.654;-8.438;2024-02-23T10:11:41;0.30;;;0.30;;
60885;SDS011;46736;41.654;-8.438;2024-02-23T10:13:42;0.40;;;0.40;;
60885;SDS011;46736;41.654;-8.438;2024-02-23T10:15:43;0.40;;;0.40;;
60885;SDS011;46736;41.654;-8.438;2024-02-23T10:17:44;0.50;;;0.50;;
60885;SDS011;46736;41.654;-8.438;2024-02-23T10:19:45;0.50;;;0.50;;
60885;SDS011;46736;41.654;-8.438;2024-02-23T10:21:46;0.60;;;0.60;;
60885;SDS011;46736;41.654;-8.438;2024-02-23T10:23:47;0.57;;;0.57;;
60885;SDS011;46736;41.654;-8.438;2024-02-23T10:25:48;0.60;;;0.60;;
60885;SDS011;46736;41.654;-8.438;2024-02-23T10:27:49;0.63;;;0.63;;
60885;SDS011;46736;41.654;-8.438;2024-02-23T10:29:50;0.68;;;0.68;;
60885;SDS011;46736;41.654;-8.438;2024-02-23T10:31:51;0.40;;;0.40;;
60885;SDS011;46736;41.654;-8.438;2024-02-23T10:33:53;0.60;;;0.60;;
60885;SDS011;46736;41.654;-8.438;2024-02-23T10:35:55;0.40;;;0.40;;
60885;SDS011;46736;41.654;-8.438;2024-02-23T10:37:58;0.20;;;0.20;;
60885;SDS011;46736;41.654;-8.438;2024-02-23T10:39:59;0.30;;;0.30;;
60885;SDS011;46736;41.654;-8.438;2024-02-23T10:42:02;0.40;;;0.40;;
60885;SDS011;46736;41.654;-8.438;2024-02-23T10:44:04;0.30;;;0.30;;
60885;SDS011;46736;41.654;-8.438;2024-02-23T10:46:05;0.40;;;0.40;;
60885;SDS011;46736;41.654;-8.438;2024-02-23T10:48:08;0.40;;;0.40;;
60885;SDS011;46736;41.654;-8.438;2024-02-23T10:50:10;0.40;;;0.40;;
60885;SDS011;46736;41.654;-8.438;2024-02-23T10:52:14;0.50;;;0.50;;
60885;SDS011;46736;41.654;-8.438;2024-02-23T10:54:15;0.50;;;0.50;;
60885;SDS011;46736;41.654;-8.438;2024-02-23T10:56:19;0.30;;;0.30;;
60885;SDS011;46736;41.654;-8.438;2024-02-23T10:58:25;0.50;;;0.50;;
60885;SDS011;46736;41.654;-8.438;2024-02-23T11:00:26;0.50;;;0.50;;
60885;SDS011;46736;41.654;-8.438;2024-02-23T11:02:27;0.60;;;0.60;;
60885;SDS011;46736;41.654;-8.438;2024-02-23T11:04:30;0.70;;;0.70;;
60885;SDS011;46736;41.654;-8.438;2024-02-23T11:06:33;0.70;;;0.70;;
60885;SDS011;46736;41.654;-8.438;2024-02-23T11:08:34;0.80;;;0.80;;
60885;SDS011;46736;41.654;-8.438;2024-02-23T11:10:52;0.60;;;0.60;;
60885;SDS011;46736;41.654;-8.438;2024-02-23T11:13:00;0.40;;;0.40;;
60885;SDS011;46736;41.654;-8.438;2024-02-23T11:15:01;0.43;;;0.43;;
60885;SDS011;46736;41.654;-8.438;2024-02-23T11:17:02;0.38;;;0.38;;
60885;SDS011;46736;41.654;-8.438;2024-02-23T11:19:03;0.38;;;0.38;;
60885;SDS011;46736;41.654;-8.438;2024-02-23T11:21:05;0.40;;;0.40;;
60885;SDS011;46736;41.654;-8.438;2024-02-23T11:23:14;0.30;;;0.30;;
60885;SDS011;46736;41.654;-8.438;2024-02-23T11:25:15;0.30;;;0.30;;
60885;SDS011;46736;41.654;-8.438;2024-02-23T11:27:17;0.30;;;0.30;;
60885;SDS011;46736;41.654;-8.438;2024-02-23T11:29:18;0.40;;;0.40;;
60885;SDS011;46736;41.654;-8.438;2024-02-23T11:31:19;0.30;;;0.30;;
60885;SDS011;46736;41.654;-8.438;2024-02-23T11:35:36;0.30;;;0.30;;
60885;SDS011;46736;41.654;-8.438;2024-02-23T11:37:52;0.30;;;0.30;;
60885;SDS011;46736;41.654;-8.438;2024-02-23T11:40:01;0.30;;;0.30;;
60885;SDS011;46736;41.654;-8.438;2024-02-23T11:42:04;0.30;;;0.30;;
60885;SDS011;46736;41.654;-8.438;2024-02-23T11:44:05;0.30;;;0.30;;
60885;SDS011;46736;41.654;-8.438;2024-02-23T11:46:07;0.30;;;0.30;;
60885;SDS011;46736;41.654;-8.438;2024-02-23T11:48:08;0.30;;;0.30;;
60885;SDS011;46736;41.654;-8.438;2024-02-23T11:50:09;0.30;;;0.30;;
60885;SDS011;46736;41.654;-8.438;2024-02-23T11:52:10;0.30;;;0.30;;
60885;SDS011;46736;41.654;-8.438;2024-02-23T11:54:11;0.30;;;0.30;;
60885;SDS011;46736;41.654;-8.438;2024-02-23T11:56:12;0.30;;;0.30;;
60885;SDS011;46736;41.654;-8.438;2024-02-23T11:58:12;0.35;;;0.35;;
60885;SDS011;46736;41.654;-8.438;2024-02-23T12:00:13;0.30;;;0.30;;